Time;durP1;ratioP1;P1;durP2;ratioP2;P2;SDS_P1;SDS_P2;PMS_P1;PMS_P2;Temp;Humidity;BMP_temperature;BMP_pressure;BME280_temperature;BME280_humidity;BME280_pressure;Samples;Min_cycle;Max_cycle;Signal;HPM_P1;HPM_P2
2020/12/25 00:00:08;;;;;;;6.30;0.30;;;10.20;99.90;;;;;;4999992;28;20046;-49
2020/12/25 00:02:35;;;;;;;4.78;0.30;;;10.20;99.90;;;;;;5008828;28;20391;-48
2020/12/25 00:05:02;;;;;;;5.20;0.10;;;10.20;99.90;;;;;;5005042;28;20057;-49
2020/12/25 00:07:29;;;;;;;1.60;0.30;;;10.30;99.90;;;;;;5008796;28;20046;-48
2020/12/25 00:09:56;;;;;;;9.73;0.30;;;10.30;99.90;;;;;;5017646;28;20079;-49
2020/12/25 00:12:22;;;;;;;3.42;0.20;;;10.30;99.90;;;;;;5006794;28;20054;-49
2020/12/25 00:14:48;;;;;;;3.88;0.20;;;10.30;99.90;;;;;;5002636;28;20054;-49
2020/12/25 00:17:15;;;;;;;4.05;0.30;;;10.30;99.90;;;;;;5007748;28;20047;-48
2020/12/25 00:19:41;;;;;;;2.08;0.10;;;10.20;99.90;;;;;;5018619;28;20062;-49
2020/12/25 00:22:08;;;;;;;2.65;0.20;;;10.10;99.90;;;;;;5018375;28;20402;-49
2020/12/25 00:24:34;;;;;;;3.20;0.20;;;10.00;99.90;;;;;;5010974;28;20494;-48
2020/12/25 00:27:01;;;;;;;4.53;0.20;;;10.00;99.90;;;;;;4995372;28;20057;-50
2020/12/25 00:29:27;;;;;;;3.42;0.20;;;10.00;99.90;;;;;;5016053;28;20062;-48
2020/12/25 00:31:53;;;;;;;2.47;0.10;;;10.00;99.90;;;;;;4996034;28;20049;-49
2020/12/25 00:34:20;;;;;;;2.78;0.20;;;10.00;99.90;;;;;;5014969;28;20049;-50
2020/12/25 00:36:46;;;;;;;4.28;0.10;;;9.90;99.90;;;;;;5018389;28;20060;-49
2020/12/25 00:39:15;;;;;;;0.80;0.10;;;9.90;99.90;;;;;;5014958;28;20042;-49
2020/12/25 00:41:44;;;;;;;1.50;0.20;;;10.00;99.90;;;;;;5011053;28;20053;-49
2020/12/25 00:44:11;;;;;;;6.00;0.30;;;10.10;99.90;;;;;;5002608;28;20060;-49
2020/12/25 00:46:38;;;;;;;1.10;0.20;;;10.20;99.90;;;;;;5014819;28;20054;-49
2020/12/25 00:49:05;;;;;;;1.48;0.10;;;10.10;99.90;;;;;;5019720;28;20046;-49
2020/12/25 00:51:32;;;;;;;2.90;0.20;;;10.10;99.90;;;;;;5004309;28;20061;-49
2020/12/25 00:53:58;;;;;;;2.25;0.20;;;9.90;99.90;;;;;;5005153;28;20054;-49
2020/12/25 00:56:25;;;;;;;5.15;0.40;;;9.90;99.90;;;;;;4999377;28;20050;-49
2020/12/25 00:58:51;;;;;;;0.85;0.20;;;9.90;99.90;;;;;;5008050;28;20065;-49
2020/12/25 01:01:18;;;;;;;5.93;0.20;;;9.90;99.90;;;;;;5013956;28;20045;-49
2020/12/25 01:03:45;;;;;;;2.83;0.20;;;9.80;99.90;;;;;;5013408;28;20042;-48
2020/12/25 01:06:19;;;;;;;2.28;0.20;;;9.80;99.90;;;;;;5004554;28;20061;-49
2020/12/25 01:08:48;;;;;;;1.48;0.20;;;9.80;99.90;;;;;;5016526;28;20041;-48
2020/12/25 01:11:22;;;;;;;5.03;0.20;;;9.80;99.90;;;;;;5012010;28;20057;-49
2020/12/25 01:13:49;;;;;;;1.65;0.10;;;9.80;99.90;;;;;;5012425;28;20053;-49
2020/12/25 01:16:16;;;;;;;3.85;0.63;;;9.80;99.90;;;;;;5011809;28;20052;-48
2020/12/25 01:18:46;;;;;;;4.18;0.10;;;9.80;99.90;;;;;;5014837;28;20468;-48
2020/12/25 01:21:15;;;;;;;3.47;0.35;;;9.80;99.90;;;;;;5015057;28;20072;-48
2020/12/25 01:23:42;;;;;;;4.90;0.20;;;9.80;99.90;;;;;;5023397;28;20054;-49
2020/12/25 01:26:09;;;;;;;2.83;0.17;;;9.90;99.90;;;;;;5012843;28;20156;-48
2020/12/25 01:28:37;;;;;;;1.02;0.20;;;9.80;99.90;;;;;;5009626;28;20487;-49
2020/12/25 01:31:04;;;;;;;2.75;0.20;;;9.90;99.90;;;;;;5012907;28;20042;-50
2020/12/25 01:33:35;;;;;;;4.30;0.20;;;9.80;99.90;;;;;;5010234;28;20037;-48
2020/12/25 01:36:03;;;;;;;2.10;0.20;;;9.90;99.90;;;;;;5010676;28;20472;-48
2020/12/25 01:38:31;;;;;;;0.73;0.10;;;9.90;99.90;;;;;;5010897;28;20054;-51
2020/12/25 01:40:58;;;;;;;6.30;0.20;;;9.90;99.90;;;;;;5010584;28;20042;-50
2020/12/25 01:43:25;;;;;;;3.35;0.10;;;10.00;99.90;;;;;;5006829;28;20061;-50
2020/12/25 01:45:52;;;;;;;4.95;0.10;;;10.00;99.90;;;;;;5012538;28;20061;-47
2020/12/25 01:48:20;;;;;;;3.83;0.20;;;10.00;99.90;;;;;;5016978;28;20501;-50
2020/12/25 01:50:47;;;;;;;2.63;0.10;;;10.00;99.90;;;;;;5009600;28;20042;-49
2020/12/25 01:53:16;;;;;;;5.40;0.13;;;10.00;99.90;;;;;;5010870;28;20058;-50
2020/12/25 01:55:44;;;;;;;1.50;0.10;;;10.00;99.90;;;;;;5010584;28;20053;-49
2020/12/25 01:58:13;;;;;;;5.35;0.15;;;10.00;99.90;;;;;;4999388;28;20041;-48
2020/12/25 02:00:41;;;;;;;5.82;0.20;;;9.90;99.90;;;;;;5012945;28;20053;-49
2020/12/25 02:03:08;;;;;;;2.20;0.15;;;9.90;99.90;;;;;;5009958;28;20053;-48
2020/12/25 02:05:36;;;;;;;1.20;0.10;;;9.90;99.90;;;;;;5006906;28;20059;-49
2020/12/25 02:08:03;;;;;;;1.30;0.10;;;9.80;99.90;;;;;;5013118;28;20045;-49
2020/12/25 02:10:29;;;;;;;5.55;0.30;;;9.80;99.90;;;;;;4998435;28;20507;-49
2020/12/25 02:12:56;;;;;;;2.05;0.20;;;9.80;99.90;;;;;;5010323;28;20042;-49
2020/12/25 02:15:23;;;;;;;4.57;0.40;;;9.80;99.90;;;;;;5010557;28;20050;-49
2020/12/25 02:17:50;;;;;;;3.80;0.38;;;9.80;99.90;;;;;;5019533;28;20053;-48
2020/12/25 02:20:16;;;;;;;3.80;0.20;;;9.80;99.90;;;;;;5009359;28;20050;-49
2020/12/25 02:22:43;;;;;;;3.78;0.40;;;9.80;99.90;;;;;;5012058;28;20407;-48
2020/12/25 02:25:10;;;;;;;3.10;0.40;;;9.70;99.90;;;;;;5009496;28;20046;-49
2020/12/25 02:27:37;;;;;;;2.00;0.30;;;9.70;99.90;;;;;;4996161;28;20045;-48
2020/12/25 02:30:05;;;;;;;2.50;0.20;;;9.80;99.90;;;;;;5012308;28;20042;-49
2020/12/25 02:32:33;;;;;;;7.40;0.20;;;9.80;99.90;;;;;;5011596;28;20065;-48
2020/12/25 02:35:11;;;;;;;4.57;0.60;;;9.80;99.90;;;;;;5012112;28;20382;-48
2020/12/25 02:37:38;;;;;;;2.58;0.20;;;9.80;99.90;;;;;;5011341;28;20038;-49
2020/12/25 02:40:04;;;;;;;5.65;0.20;;;9.80;99.90;;;;;;5011245;28;20380;-49
2020/12/25 02:42:31;;;;;;;3.30;0.20;;;9.80;99.90;;;;;;5009208;28;20046;-49
2020/12/25 02:44:58;;;;;;;4.00;0.10;;;9.80;99.90;;;;;;5002347;28;20057;-49
2020/12/25 02:47:24;;;;;;;7.32;0.40;;;9.90;99.90;;;;;;5010887;28;20080;-50
2020/12/25 02:49:57;;;;;;;3.92;0.20;;;10.00;99.90;;;;;;5016032;28;20054;-48
2020/12/25 02:52:23;;;;;;;3.38;0.30;;;10.00;99.90;;;;;;5012048;28;20060;-49
2020/12/25 02:54:49;;;;;;;2.90;0.20;;;9.90;99.90;;;;;;5010129;28;20057;-48
2020/12/25 02:57:16;;;;;;;2.42;0.10;;;9.90;99.90;;;;;;5009489;28;20046;-49
2020/12/25 02:59:43;;;;;;;1.88;0.20;;;10.00;99.90;;;;;;5008039;28;20054;-48
2020/12/25 03:02:11;;;;;;;2.03;0.32;;;10.00;99.90;;;;;;5008865;28;20064;-48
2020/12/25 03:04:38;;;;;;;2.13;0.10;;;10.00;99.90;;;;;;5002809;28;20050;-48
2020/12/25 03:07:09;;;;;;;1.67;0.10;;;10.00;99.90;;;;;;5000415;28;20050;-49
2020/12/25 03:09:36;;;;;;;1.05;0.20;;;10.00;99.90;;;;;;5005204;28;20050;-49
2020/12/25 03:12:03;;;;;;;2.90;0.20;;;10.00;99.90;;;;;;5004527;28;20065;-50
2020/12/25 03:14:29;;;;;;;3.53;0.20;;;10.00;99.90;;;;;;5010260;28;20058;-49
2020/12/25 03:16:55;;;;;;;2.88;0.17;;;9.90;99.90;;;;;;5009744;28;20398;-49
2020/12/25 03:19:22;;;;;;;7.30;0.80;;;9.90;99.90;;;;;;5014771;28;20054;-48
2020/12/25 03:21:49;;;;;;;5.97;0.40;;;9.90;99.90;;;;;;5009940;28;20545;-48
2020/12/25 03:24:17;;;;;;;0.73;0.25;;;10.00;99.90;;;;;;5011840;28;20060;-49
2020/12/25 03:26:43;;;;;;;5.32;0.50;;;10.00;99.90;;;;;;5016610;28;20060;-49
2020/12/25 03:29:10;;;;;;;3.33;0.20;;;10.00;99.90;;;;;;5014920;28;20050;-48
2020/12/25 03:31:36;;;;;;;4.43;0.47;;;10.00;99.90;;;;;;5007780;28;20046;-49
2020/12/25 03:34:03;;;;;;;2.58;0.40;;;10.00;99.90;;;;;;5009002;28;20498;-48
2020/12/25 03:36:30;;;;;;;3.88;0.65;;;10.00;99.90;;;;;;5008566;28;20408;-48
2020/12/25 03:38:57;;;;;;;1.58;0.30;;;10.00;99.90;;;;;;5004307;28;20053;-49
2020/12/25 03:41:23;;;;;;;6.47;0.10;;;9.90;99.90;;;;;;5004271;28;20046;-48
2020/12/25 03:43:50;;;;;;;1.75;0.10;;;9.90;99.90;;;;;;5011839;28;20479;-49
2020/12/25 03:46:16;;;;;;;2.38;0.20;;;9.90;99.90;;;;;;5005825;28;20057;-49
2020/12/25 03:48:43;;;;;;;2.85;0.30;;;9.80;99.90;;;;;;5016150;28;20046;-49
2020/12/25 03:51:10;;;;;;;4.13;0.30;;;9.70;99.90;;;;;;5014443;28;20547;-50
2020/12/25 03:53:36;;;;;;;2.20;0.20;;;9.70;99.90;;;;;;5013731;28;20471;-48
2020/12/25 03:56:03;;;;;;;3.30;0.10;;;9.70;99.90;;;;;;5013425;28;20081;-51
2020/12/25 03:58:29;;;;;;;6.10;0.20;;;9.70;99.90;;;;;;5008824;28;20050;-49
2020/12/25 04:00:56;;;;;;;3.03;0.20;;;10.00;99.90;;;;;;5012438;28;20038;-48
2020/12/25 04:03:23;;;;;;;1.25;0.10;;;10.00;99.90;;;;;;5012422;28;20062;-48
2020/12/25 04:06:06;;;;;;;2.50;0.10;;;9.90;99.90;;;;;;5019106;28;20099;-49
2020/12/25 04:08:33;;;;;;;0.77;0.08;;;9.90;99.90;;;;;;5010404;28;20058;-49
2020/12/25 04:10:59;;;;;;;1.88;0.17;;;9.80;99.90;;;;;;5004410;28;20058;-49
2020/12/25 04:13:26;;;;;;;1.58;0.15;;;9.80;99.90;;;;;;5010770;28;20043;-50
2020/12/25 04:15:52;;;;;;;5.25;0.30;;;9.80;99.90;;;;;;5017910;28;20053;-49
2020/12/25 04:18:19;;;;;;;3.22;0.60;;;9.70;99.90;;;;;;5015849;28;20053;-48
2020/12/25 04:20:45;;;;;;;1.23;0.10;;;9.70;99.90;;;;;;5016697;28;20054;-49
2020/12/25 04:23:12;;;;;;;1.70;0.20;;;9.70;99.90;;;;;;5007274;28;20051;-48
2020/12/25 04:25:39;;;;;;;3.17;0.20;;;9.70;99.90;;;;;;5010514;28;20046;-48
2020/12/25 04:28:05;;;;;;;2.22;0.17;;;9.70;99.90;;;;;;4997916;28;20483;-48
2020/12/25 04:30:32;;;;;;;3.13;0.10;;;9.60;99.90;;;;;;5007957;28;20054;-48
2020/12/25 04:32:58;;;;;;;3.75;0.20;;;9.70;99.90;;;;;;5012198;28;20049;-48
2020/12/25 04:35:25;;;;;;;1.23;0.20;;;9.60;99.90;;;;;;5011118;28;20064;-49
2020/12/25 04:37:51;;;;;;;2.45;0.13;;;9.60;99.90;;;;;;5011730;28;20692;-49
2020/12/25 04:40:18;;;;;;;3.60;0.10;;;9.70;99.90;;;;;;5013783;28;20065;-48
2020/12/25 04:42:50;;;;;;;3.85;0.40;;;9.70;99.90;;;;;;5009979;28;20050;-48
2020/12/25 04:45:18;;;;;;;6.45;0.25;;;9.60;99.90;;;;;;5016204;28;20058;-49
2020/12/25 04:47:48;;;;;;;2.67;0.10;;;9.70;99.90;;;;;;5012691;28;20046;-49
2020/12/25 04:50:15;;;;;;;3.95;0.10;;;9.70;99.90;;;;;;5016012;28;20432;-48
2020/12/25 04:52:41;;;;;;;9.88;0.32;;;9.70;99.90;;;;;;5001311;28;20050;-49
2020/12/25 04:55:08;;;;;;;2.67;0.20;;;9.70;99.90;;;;;;5017121;28;20038;-48
2020/12/25 04:57:34;;;;;;;1.88;0.10;;;9.70;99.90;;;;;;5015926;28;20045;-48
2020/12/25 05:00:01;;;;;;;17.58;0.57;;;9.60;99.90;;;;;;5009618;28;20045;-48
2020/12/25 05:02:29;;;;;;;3.90;0.20;;;9.60;99.90;;;;;;5010432;28;20061;-48
2020/12/25 05:04:55;;;;;;;7.70;1.02;;;9.50;99.90;;;;;;5012750;28;20081;-48
2020/12/25 05:07:24;;;;;;;2.30;0.10;;;9.50;99.90;;;;;;5010749;28;20057;-49
2020/12/25 05:09:54;;;;;;;2.15;0.20;;;9.50;99.90;;;;;;5013083;28;20057;-48
2020/12/25 05:12:21;;;;;;;2.45;0.10;;;9.50;99.90;;;;;;5012044;28;20376;-48
2020/12/25 05:14:48;;;;;;;2.08;0.10;;;9.50;99.90;;;;;;5021056;28;20049;-48
2020/12/25 05:17:20;;;;;;;5.43;0.20;;;9.40;99.90;;;;;;5010748;28;20081;-49
2020/12/25 05:19:48;;;;;;;5.10;0.10;;;9.40;99.90;;;;;;5012830;28;20057;-49
2020/12/25 05:22:18;;;;;;;4.07;0.20;;;9.50;99.90;;;;;;5012106;28;20300;-48
2020/12/25 05:24:45;;;;;;;6.28;0.25;;;9.50;99.90;;;;;;5016277;28;20053;-50
2020/12/25 05:27:12;;;;;;;10.98;0.20;;;9.50;99.90;;;;;;5012089;28;20042;-49
2020/12/25 05:29:40;;;;;;;6.47;0.28;;;9.50;99.90;;;;;;5011943;28;20050;-49
2020/12/25 05:32:08;;;;;;;2.60;0.20;;;9.50;99.90;;;;;;5000121;28;20452;-48
2020/12/25 05:34:36;;;;;;;3.22;0.20;;;9.50;99.90;;;;;;5010111;28;20053;-49
2020/12/25 05:37:07;;;;;;;5.20;0.20;;;9.50;99.90;;;;;;5005677;28;20054;-48
2020/12/25 05:39:36;;;;;;;2.40;0.20;;;9.50;99.90;;;;;;5005897;28;20058;-48
2020/12/25 05:42:05;;;;;;;4.55;0.25;;;9.50;99.90;;;;;;5015255;28;20060;-49
2020/12/25 05:44:48;;;;;;;5.93;0.25;;;9.40;99.90;;;;;;4998648;28;20755;-48
2020/12/25 05:47:16;;;;;;;4.05;0.20;;;9.40;99.90;;;;;;5010716;28;20053;-48
2020/12/25 05:49:43;;;;;;;3.22;0.10;;;9.40;99.90;;;;;;5005344;28;20053;-49
2020/12/25 05:52:12;;;;;;;3.55;0.20;;;9.40;99.90;;;;;;5015762;28;20060;-49
2020/12/25 05:54:42;;;;;;;2.05;0.05;;;9.40;99.90;;;;;;5022933;28;20049;-48
2020/12/25 05:57:08;;;;;;;2.92;0.30;;;9.40;99.90;;;;;;5011026;28;20054;-48
2020/12/25 05:59:35;;;;;;;2.25;0.20;;;9.40;99.90;;;;;;5010693;28;20053;-48
2020/12/25 06:02:05;;;;;;;7.18;0.40;;;9.40;99.90;;;;;;5011989;28;20050;-48
2020/12/25 06:04:33;;;;;;;3.10;0.20;;;9.40;99.90;;;;;;5009987;28;20053;-49
2020/12/25 06:07:00;;;;;;;5.15;0.20;;;9.40;99.90;;;;;;5011289;28;20065;-48
2020/12/25 06:09:32;;;;;;;2.30;0.20;;;9.40;99.90;;;;;;5003316;28;20415;-48
2020/12/25 06:12:00;;;;;;;2.03;0.20;;;9.40;99.90;;;;;;5001699;28;20076;-49
2020/12/25 06:14:27;;;;;;;2.13;0.22;;;9.40;99.90;;;;;;5017875;28;20045;-48
2020/12/25 06:17:06;;;;;;;3.20;0.15;;;9.30;99.90;;;;;;5010071;28;20065;-48
2020/12/25 06:19:39;;;;;;;5.30;0.22;;;9.40;99.90;;;;;;5009038;28;20054;-49
2020/12/25 06:22:13;;;;;;;6.85;0.30;;;9.30;99.90;;;;;;5009580;28;20050;-48
2020/12/25 06:24:42;;;;;;;15.95;0.47;;;9.30;99.90;;;;;;5023844;28;20072;-48
2020/12/25 06:27:13;;;;;;;3.95;0.40;;;9.30;99.90;;;;;;5008782;28;20428;-48
2020/12/25 06:29:43;;;;;;;1.63;0.40;;;9.20;99.90;;;;;;5005074;28;20057;-49
2020/12/25 06:32:13;;;;;;;4.10;0.30;;;9.30;99.90;;;;;;5002056;28;20049;-48
2020/12/25 06:34:55;;;;;;;4.05;0.40;;;9.30;99.90;;;;;;5007981;28;20057;-48
2020/12/25 06:37:27;;;;;;;2.42;0.28;;;9.30;99.90;;;;;;5008229;28;20046;-48
2020/12/25 06:40:05;;;;;;;7.15;0.40;;;9.30;99.90;;;;;;5009750;28;20045;-49
2020/12/25 06:42:35;;;;;;;4.50;0.20;;;9.40;99.90;;;;;;5004904;28;20506;-49
2020/12/25 06:45:11;;;;;;;5.43;0.20;;;9.40;99.90;;;;;;4995568;28;20058;-48
2020/12/25 06:47:40;;;;;;;3.53;0.35;;;9.30;99.90;;;;;;5008466;28;20045;-48
2020/12/25 06:50:11;;;;;;;1.83;0.30;;;9.30;99.90;;;;;;5008062;28;20545;-49
2020/12/25 06:52:56;;;;;;;3.53;0.32;;;9.30;99.90;;;;;;5003634;28;20064;-49
2020/12/25 06:55:38;;;;;;;4.75;0.30;;;9.30;99.90;;;;;;5003418;28;20052;-49
2020/12/25 06:58:06;;;;;;;2.53;0.35;;;9.30;99.90;;;;;;5005221;28;20153;-48
2020/12/25 07:00:32;;;;;;;3.60;0.40;;;9.20;99.90;;;;;;5011531;28;20050;-48
2020/12/25 07:03:14;;;;;;;3.38;0.32;;;9.10;99.90;;;;;;5007659;28;20050;-48
2020/12/25 07:05:47;;;;;;;6.93;0.20;;;9.10;99.90;;;;;;5001056;28;20050;-48
2020/12/25 07:08:27;;;;;;;10.85;0.30;;;9.00;99.90;;;;;;5003708;28;20065;-49
2020/12/25 07:11:05;;;;;;;3.88;0.40;;;9.10;99.90;;;;;;5012315;28;20042;-50
2020/12/25 07:13:32;;;;;;;5.20;0.45;;;8.90;99.90;;;;;;5008681;28;20487;-48
2020/12/25 07:15:59;;;;;;;2.28;0.20;;;8.90;99.90;;;;;;5009531;28;20455;-49
2020/12/25 07:18:26;;;;;;;12.02;0.90;;;8.80;99.90;;;;;;5008953;28;20053;-49
2020/12/25 07:20:55;;;;;;;4.75;0.20;;;8.80;99.90;;;;;;5007096;28;20049;-49
2020/12/25 07:23:22;;;;;;;4.20;0.30;;;8.80;99.90;;;;;;4997067;28;20061;-49
2020/12/25 07:25:48;;;;;;;2.25;0.20;;;8.80;99.90;;;;;;5008613;28;20065;-48
2020/12/25 07:28:15;;;;;;;1.02;0.10;;;8.70;99.90;;;;;;5007379;28;20054;-49
2020/12/25 07:30:42;;;;;;;7.55;0.32;;;8.70;99.90;;;;;;5006409;28;20431;-49
2020/12/25 07:33:09;;;;;;;2.78;0.43;;;8.70;99.90;;;;;;5010728;28;20046;-50
2020/12/25 07:35:40;;;;;;;2.70;0.47;;;8.70;99.90;;;;;;5010769;28;20707;-49
2020/12/25 07:38:26;;;;;;;6.13;0.40;;;8.70;99.90;;;;;;5007991;28;20137;-51
2020/12/25 07:40:52;;;;;;;0.63;0.20;;;8.60;99.90;;;;;;5007156;28;20041;-49
2020/12/25 07:43:19;;;;;;;2.15;0.35;;;8.60;99.90;;;;;;5009796;28;20046;-49
2020/12/25 07:45:47;;;;;;;3.00;0.30;;;8.60;99.90;;;;;;5007642;28;20061;-49
2020/12/25 07:48:14;;;;;;;0.85;0.13;;;8.60;99.90;;;;;;5003855;28;20368;-49
2020/12/25 07:50:45;;;;;;;1.70;0.15;;;8.60;99.90;;;;;;5011522;28;20053;-49
2020/12/25 07:53:17;;;;;;;5.15;0.30;;;8.60;99.90;;;;;;5010414;28;20461;-49
2020/12/25 07:55:47;;;;;;;2.92;0.20;;;8.70;99.90;;;;;;5008261;28;20046;-50
2020/12/25 07:58:18;;;;;;;4.70;0.20;;;8.70;99.90;;;;;;4993334;28;20054;-48
2020/12/25 08:00:45;;;;;;;1.85;0.10;;;8.70;99.90;;;;;;5006125;28;20057;-49
2020/12/25 08:03:13;;;;;;;1.50;0.10;;;8.60;99.90;;;;;;5003708;28;20054;-48
2020/12/25 08:05:39;;;;;;;3.92;0.20;;;8.60;99.90;;;;;;5010320;28;20133;-49
2020/12/25 08:08:06;;;;;;;3.58;0.95;;;8.50;99.90;;;;;;4996660;28;20041;-49
2020/12/25 08:10:34;;;;;;;8.05;0.93;;;8.50;99.90;;;;;;5010608;28;20060;-49
2020/12/25 08:13:04;;;;;;;5.85;0.70;;;8.50;99.90;;;;;;5008558;28;20050;-49
2020/12/25 08:15:33;;;;;;;7.63;0.50;;;8.50;99.90;;;;;;4995735;28;20054;-49
2020/12/25 08:18:02;;;;;;;4.30;0.55;;;8.60;99.90;;;;;;5006094;28;20042;-49
2020/12/25 08:20:28;;;;;;;40.60;20.70;;;8.60;99.90;;;;;;5004149;28;20054;-49
2020/12/25 08:23:02;;;;;;;14.15;3.28;;;8.60;99.90;;;;;;5005188;28;20386;-49
2020/12/25 08:25:32;;;;;;;6.97;1.55;;;8.50;99.90;;;;;;4994446;28;20046;-49
2020/12/25 08:27:59;;;;;;;3.92;0.52;;;8.60;99.90;;;;;;5007759;28;20054;-49
2020/12/25 08:30:26;;;;;;;3.58;0.50;;;8.60;99.90;;;;;;5000091;28;20056;-50
2020/12/25 08:32:59;;;;;;;3.83;0.50;;;8.60;99.90;;;;;;5002633;28;20049;-48
2020/12/25 08:35:30;;;;;;;4.10;0.20;;;8.60;99.90;;;;;;5009975;28;20050;-51
2020/12/25 08:38:02;;;;;;;4.80;0.10;;;8.60;99.90;;;;;;4983949;28;20049;-49
2020/12/25 08:40:34;;;;;;;2.60;0.10;;;8.70;99.90;;;;;;5012716;28;20458;-49
2020/12/25 08:43:09;;;;;;;5.93;0.50;;;8.70;99.90;;;;;;5005136;28;20050;-49
2020/12/25 08:45:53;;;;;;;7.32;1.23;;;8.80;99.90;;;;;;5011435;28;20049;-48
2020/12/25 08:48:22;;;;;;;0.55;0.20;;;8.80;99.90;;;;;;5011427;28;20038;-48
2020/12/25 08:50:49;;;;;;;4.00;0.30;;;8.80;99.90;;;;;;5009793;28;20053;-48
2020/12/25 08:53:21;;;;;;;7.75;0.40;;;8.90;99.90;;;;;;5010795;28;20419;-48
2020/12/25 08:55:55;;;;;;;3.70;0.20;;;8.90;99.90;;;;;;5000447;28;20080;-49
2020/12/25 08:58:23;;;;;;;2.85;0.20;;;8.90;99.90;;;;;;5009723;28;20046;-48
2020/12/25 09:01:08;;;;;;;2.70;0.50;;;8.90;99.90;;;;;;5011976;28;20054;-48
2020/12/25 09:03:42;;;;;;;3.30;0.50;;;9.00;99.90;;;;;;5012518;28;20054;-49
2020/12/25 09:06:10;;;;;;;4.57;0.95;;;8.90;99.90;;;;;;5012383;28;20141;-49
2020/12/25 09:08:38;;;;;;;5.03;0.88;;;8.90;99.90;;;;;;5012961;28;20396;-48
2020/12/25 09:11:12;;;;;;;18.05;2.42;;;8.90;99.90;;;;;;5009160;28;20663;-49
2020/12/25 09:13:39;;;;;;;8.30;1.27;;;8.90;99.90;;;;;;5004620;28;20057;-48
2020/12/25 09:16:08;;;;;;;6.40;1.88;;;8.90;99.90;;;;;;5011087;28;20467;-51
2020/12/25 09:18:36;;;;;;;11.02;0.60;;;8.90;99.90;;;;;;5008286;28;20038;-52
2020/12/25 09:21:03;;;;;;;2.13;0.30;;;8.90;99.90;;;;;;4997354;28;20069;-52
2020/12/25 09:23:30;;;;;;;1.02;0.20;;;8.90;99.90;;;;;;5003958;28;20487;-51
2020/12/25 09:25:57;;;;;;;3.88;0.40;;;8.90;99.90;;;;;;5016243;28;21191;-49
2020/12/25 09:28:24;;;;;;;3.08;0.30;;;9.00;99.90;;;;;;5010759;28;20046;-53
2020/12/25 09:30:57;;;;;;;1.77;0.30;;;9.00;99.90;;;;;;5002380;28;20047;-53
2020/12/25 09:33:24;;;;;;;5.97;1.10;;;9.00;99.90;;;;;;5012699;28;20049;-49
2020/12/25 09:35:51;;;;;;;4.45;0.30;;;9.00;99.90;;;;;;5012360;28;20042;-49
2020/12/25 09:38:18;;;;;;;0.85;0.30;;;9.10;99.90;;;;;;5011625;28;20050;-51
2020/12/25 09:40:48;;;;;;;7.60;0.80;;;9.10;99.90;;;;;;5014684;28;20038;-49
2020/12/25 09:43:14;;;;;;;15.38;3.35;;;9.10;99.90;;;;;;4998664;28;20050;-49
2020/12/25 09:45:41;;;;;;;12.25;3.60;;;9.10;99.90;;;;;;5009375;28;20054;-51
2020/12/25 09:48:08;;;;;;;4.05;1.35;;;9.10;99.90;;;;;;5009822;28;20141;-52
2020/12/25 09:50:35;;;;;;;5.78;1.10;;;9.10;99.90;;;;;;5005680;28;20061;-51
2020/12/25 09:53:02;;;;;;;2.13;0.60;;;9.10;99.90;;;;;;5007977;28;20407;-49
2020/12/25 09:55:28;;;;;;;10.18;2.30;;;9.10;99.90;;;;;;5000181;28;20046;-49
2020/12/25 09:57:55;;;;;;;8.70;0.90;;;9.20;99.90;;;;;;5004957;28;20061;-48
2020/12/25 10:00:21;;;;;;;3.28;1.27;;;9.30;99.90;;;;;;4995697;28;20406;-48
2020/12/25 10:02:48;;;;;;;5.53;0.70;;;9.30;99.90;;;;;;5008308;28;20387;-48
2020/12/25 10:05:15;;;;;;;3.13;0.47;;;9.30;99.90;;;;;;4996094;28;20050;-49
2020/12/25 10:07:41;;;;;;;6.38;0.40;;;9.20;99.90;;;;;;5006785;28;20042;-49
2020/12/25 10:10:08;;;;;;;4.85;0.65;;;9.20;99.90;;;;;;4998604;28;20053;-48
2020/12/25 10:12:35;;;;;;;7.30;0.93;;;9.20;99.90;;;;;;5006807;28;20054;-48
2020/12/25 10:15:03;;;;;;;5.78;0.70;;;9.20;99.90;;;;;;5008951;28;20057;-48
2020/12/25 10:17:29;;;;;;;3.25;0.70;;;9.20;99.90;;;;;;5008763;28;20057;-48
2020/12/25 10:19:56;;;;;;;3.97;0.60;;;9.20;99.90;;;;;;5010309;28;20064;-49
2020/12/25 10:22:22;;;;;;;7.65;1.48;;;9.30;99.90;;;;;;5005492;28;20049;-49
2020/12/25 10:24:49;;;;;;;10.40;0.60;;;9.30;99.90;;;;;;5008958;28;20514;-48
2020/12/25 10:27:15;;;;;;;5.63;0.38;;;9.30;99.90;;;;;;5010150;28;20521;-52
2020/12/25 10:29:42;;;;;;;2.17;0.30;;;9.40;99.90;;;;;;5009119;28;20053;-48
2020/12/25 10:32:08;;;;;;;6.20;0.40;;;9.40;99.90;;;;;;5018229;28;20386;-50
2020/12/25 10:34:35;;;;;;;12.68;0.50;;;9.40;99.90;;;;;;5007074;28;20556;-48
2020/12/25 10:37:02;;;;;;;6.70;0.28;;;9.50;99.90;;;;;;5006426;28;20446;-48
2020/12/25 10:39:29;;;;;;;5.38;0.45;;;9.40;99.90;;;;;;5010219;28;20518;-50
2020/12/25 10:41:55;;;;;;;4.82;0.70;;;9.50;99.90;;;;;;5011077;28;20042;-48
2020/12/25 10:44:22;;;;;;;3.15;1.13;;;9.50;99.90;;;;;;5012666;28;20406;-49
2020/12/25 10:46:48;;;;;;;4.03;0.80;;;9.40;99.90;;;;;;5008437;28;20069;-48
2020/12/25 10:49:15;;;;;;;9.40;0.68;;;9.40;99.90;;;;;;5010339;28;20065;-49
2020/12/25 10:51:46;;;;;;;7.60;0.60;;;9.50;99.90;;;;;;5010454;28;20054;-48
2020/12/25 10:54:13;;;;;;;9.43;0.50;;;9.40;99.90;;;;;;5008780;28;20050;-48
2020/12/25 10:56:40;;;;;;;5.95;0.50;;;9.40;99.90;;;;;;5008890;28;20054;-49
2020/12/25 10:59:21;;;;;;;4.95;0.30;;;9.40;99.90;;;;;;5002402;28;20046;-49
2020/12/25 11:01:48;;;;;;;3.92;0.57;;;9.40;99.90;;;;;;4998766;28;20092;-49
2020/12/25 11:04:15;;;;;;;6.15;0.40;;;9.40;99.90;;;;;;5012284;28;20137;-49
2020/12/25 11:06:42;;;;;;;5.22;0.90;;;9.40;99.90;;;;;;5010099;28;20051;-50
2020/12/25 11:09:09;;;;;;;12.75;3.42;;;9.30;99.90;;;;;;4998140;28;20053;-50
2020/12/25 11:11:39;;;;;;;6.50;2.08;;;9.20;99.90;;;;;;5007337;28;20057;-49
2020/12/25 11:14:07;;;;;;;11.27;3.35;;;9.20;99.90;;;;;;5008111;28;20394;-49
2020/12/25 11:16:35;;;;;;;4.80;0.73;;;9.00;99.90;;;;;;5005970;28;20372;-49
2020/12/25 11:19:06;;;;;;;4.90;1.63;;;8.60;99.90;;;;;;5007559;28;20395;-50
2020/12/25 11:21:33;;;;;;;0.10;0.10;;;8.30;99.90;;;;;;5007061;28;20574;-49
2020/12/25 11:24:02;;;;;;;0.88;0.40;;;8.10;99.90;;;;;;5001809;28;20431;-51
2020/12/25 11:26:31;;;;;;;1.02;0.30;;;8.00;99.90;;;;;;5008814;28;20049;-50
2020/12/25 11:28:59;;;;;;;2.25;0.60;;;7.90;99.90;;;;;;5005245;28;20049;-52
2020/12/25 11:31:27;;;;;;;2.08;0.50;;;7.80;99.90;;;;;;5000225;28;20050;-50
2020/12/25 11:33:54;;;;;;;2.75;0.70;;;7.70;99.90;;;;;;5008770;28;20486;-50
2020/12/25 11:36:29;;;;;;;7.03;1.25;;;7.70;99.90;;;;;;5004779;28;20541;-49
2020/12/25 11:38:56;;;;;;;4.15;1.05;;;7.80;99.90;;;;;;5011377;28;20043;-50
2020/12/25 11:41:23;;;;;;;3.60;0.57;;;7.90;99.90;;;;;;5005768;28;20462;-49
2020/12/25 11:43:51;;;;;;;5.43;1.48;;;8.10;99.90;;;;;;5006865;28;20049;-49
2020/12/25 11:46:19;;;;;;;1.73;0.45;;;8.20;99.90;;;;;;5009137;28;20049;-50
2020/12/25 11:48:46;;;;;;;5.68;0.82;;;8.30;99.90;;;;;;5007997;28;20179;-49
2020/12/25 11:51:22;;;;;;;5.47;0.60;;;8.30;99.90;;;;;;5005340;28;20427;-49
2020/12/25 11:53:50;;;;;;;2.35;0.30;;;8.30;99.90;;;;;;5002726;28;20441;-49
2020/12/25 11:56:25;;;;;;;0.50;0.30;;;8.30;99.90;;;;;;5003842;28;20049;-49
2020/12/25 11:58:52;;;;;;;1.40;0.30;;;8.30;99.90;;;;;;4999255;28;20571;-49
2020/12/25 12:01:19;;;;;;;0.30;0.20;;;8.40;99.90;;;;;;5009283;28;20045;-49
2020/12/25 12:03:45;;;;;;;1.42;0.30;;;8.40;99.90;;;;;;5009326;28;20042;-49
2020/12/25 12:06:21;;;;;;;4.60;0.20;;;8.40;99.90;;;;;;5002870;28;20042;-50
2020/12/25 12:08:48;;;;;;;0.85;0.10;;;8.40;99.90;;;;;;5010098;28;20435;-49
2020/12/25 12:11:26;;;;;;;0.40;0.10;;;8.30;99.90;;;;;;5008903;28;20081;-50
2020/12/25 12:13:53;;;;;;;2.63;1.15;;;8.30;99.90;;;;;;5011630;28;20048;-49
2020/12/25 12:16:21;;;;;;;3.28;0.70;;;8.30;99.90;;;;;;5010858;28;20053;-51
2020/12/25 12:18:49;;;;;;;1.10;0.30;;;8.20;99.90;;;;;;5016844;28;20446;-49
2020/12/25 12:21:16;;;;;;;0.82;0.30;;;8.20;99.90;;;;;;5009829;28;20107;-51
2020/12/25 12:23:43;;;;;;;1.30;0.30;;;8.10;99.90;;;;;;5011975;28;20052;-49
2020/12/25 12:26:11;;;;;;;5.90;0.40;;;8.10;99.90;;;;;;5011167;28;20086;-50
2020/12/25 12:28:37;;;;;;;1.80;0.63;;;8.10;99.90;;;;;;5010930;28;20124;-50
2020/12/25 12:31:04;;;;;;;4.90;1.05;;;8.20;99.90;;;;;;5011429;28;20128;-49
2020/12/25 12:33:30;;;;;;;4.28;1.17;;;8.10;99.90;;;;;;5015771;28;20049;-49
2020/12/25 12:35:57;;;;;;;12.00;6.97;;;8.10;99.90;;;;;;5013323;28;20042;-49
2020/12/25 12:38:23;;;;;;;3.30;0.80;;;8.10;99.90;;;;;;5009999;28;20046;-50
2020/12/25 12:40:50;;;;;;;2.38;0.10;;;8.10;99.90;;;;;;5008273;28;20061;-49
2020/12/25 12:43:16;;;;;;;1.60;0.30;;;8.10;99.90;;;;;;5006786;28;20053;-49
2020/12/25 12:45:43;;;;;;;6.13;1.20;;;8.10;99.90;;;;;;4999684;28;20053;-50
2020/12/25 12:48:10;;;;;;;5.20;0.98;;;8.10;99.90;;;;;;5011300;28;20498;-49
2020/12/25 12:50:37;;;;;;;0.82;0.30;;;8.10;99.90;;;;;;5009481;28;20050;-49
2020/12/25 12:53:04;;;;;;;1.90;0.40;;;8.10;99.90;;;;;;5012810;28;20131;-50
2020/12/25 12:55:30;;;;;;;1.55;0.20;;;8.20;99.90;;;;;;5009668;28;20046;-50
2020/12/25 12:57:57;;;;;;;2.00;0.55;;;8.20;99.90;;;;;;5013971;28;20050;-49
2020/12/25 13:00:23;;;;;;;3.08;0.60;;;8.30;99.90;;;;;;5011566;28;20411;-49